createdAt,value
2019-01-05T00:07:47.850Z,77.28
2019-01-05T00:23:01.514Z,76.70
2019-01-05T00:38:25.297Z,77.13
2019-01-05T00:53:48.562Z,78.04
2019-01-05T01:09:10.796Z,78.02
2019-01-05T01:24:18.469Z,77.42
2019-01-05T01:39:41.713Z,77.72
2019-01-05T01:54:52.180Z,79.27
2019-01-05T02:10:18.160Z,79.10
2019-01-05T02:26:05.284Z,79.27
2019-01-05T02:41:33.730Z,80.21
2019-01-05T02:57:11.779Z,80.35
2019-01-05T03:12:51.365Z,80.17
2019-01-05T03:28:26.175Z,80.66
2019-01-05T03:43:56.692Z,80.47
2019-01-05T03:59:33.379Z,79.42
2019-01-05T04:15:55.782Z,79.26
2019-01-05T04:31:27.627Z,79.50
2019-01-05T04:47:09.380Z,81.18
2019-01-05T05:02:22.781Z,81.01
2019-01-05T05:17:53.316Z,80.10
2019-01-05T05:33:40.459Z,80.47
2019-01-05T05:49:24.710Z,80.64
2019-01-05T06:04:59.080Z,81.67
2019-01-05T06:20:48.066Z,82.18
2019-01-05T06:36:23.048Z,81.27
2019-01-05T06:52:15.995Z,79.37
2019-01-05T07:07:36.522Z,76.43
2019-01-05T07:23:01.755Z,75.11
2019-01-05T07:38:56.367Z,73.94
2019-01-05T07:54:23.683Z,75.26
2019-01-05T08:09:43.327Z,75.50
2019-01-05T08:25:15.188Z,74.81
2019-01-05T08:40:56.012Z,74.78
2019-01-05T08:56:36.441Z,74.00
2019-01-05T09:11:49.981Z,73.88
2019-01-05T09:27:20.943Z,72.52
2019-01-05T09:43:10.091Z,71.03
2019-01-05T09:59:01.676Z,66.58
2019-01-05T10:14:51.131Z,71.67
2019-01-05T10:30:36.705Z,72.90
2019-01-05T10:46:11.649Z,71.16
2019-01-05T11:01:37.388Z,71.52
2019-01-05T11:16:52.829Z,71.22
2019-01-05T11:32:28.006Z,71.01
2019-01-05T11:48:05.935Z,67.39
2019-01-05T12:03:56.073Z,63.57
2019-01-05T12:19:40.232Z,63.09
2019-01-05T12:35:24.264Z,65.00
2019-01-05T12:50:57.934Z,73.33
2019-01-05T13:06:30.820Z,76.53
2019-01-05T13:21:50.652Z,73.13
2019-01-05T13:37:28.520Z,73.11
2019-01-05T13:52:49.943Z,75.16
2019-01-05T14:08:03.899Z,71.59
2019-01-05T14:23:20.779Z,72.27
2019-01-05T14:38:34.234Z,74.41
2019-01-05T14:53:44.639Z,72.24
2019-01-05T15:09:10.120Z,74.88
2019-01-05T15:24:24.247Z,73.91
2019-01-05T15:39:48.314Z,74.32
2019-01-05T15:55:12.384Z,76.26
2019-01-05T16:10:29.379Z,75.67
2019-01-05T16:25:42.811Z,75.94
2019-01-05T16:40:50.671Z,71.80
2019-01-05T16:55:58.381Z,71.42
2019-01-05T17:11:19.425Z,74.08
2019-01-05T17:26:44.172Z,75.34
2019-01-05T17:41:55.252Z,75.73
2019-01-05T17:57:05.741Z,74.04
2019-01-05T18:12:25.512Z,71.10
2019-01-05T18:27:57.397Z,67.79
2019-01-05T18:43:05.009Z,69.80
2019-01-05T18:58:13.468Z,72.81
2019-01-05T19:13:37.710Z,75.72
2019-01-05T19:28:49.208Z,75.88
2019-01-05T19:44:00.820Z,76.66
2019-01-05T19:59:08.531Z,76.57
2019-01-05T20:14:32.456Z,75.62
2019-01-05T20:29:40.333Z,69.24
2019-01-05T20:44:48.195Z,75.64
2019-01-05T21:00:08.567Z,71.46
2019-01-05T21:15:16.614Z,74.94
2019-01-05T21:30:36.559Z,76.15
2019-01-05T21:45:56.418Z,78.14
2019-01-05T22:01:04.201Z,77.98
2019-01-05T22:16:27.550Z,72.68
2019-01-05T22:31:35.127Z,75.06
2019-01-05T22:46:48.638Z,72.90
2019-01-05T23:01:56.107Z,73.74
2019-01-05T23:17:13.040Z,70.47
2019-01-05T23:32:21.056Z,66.44
2019-01-05T23:47:44.878Z,69.43
